Time;durP1;ratioP1;P1;durP2;ratioP2;P2;SDS_P1;SDS_P2;PMS_P1;PMS_P2;Temp;Humidity;BMP_temperature;BMP_pressure;BME280_temperature;BME280_humidity;BME280_pressure;Samples;Min_cycle;Max_cycle;Signal;HPM_P1;HPM_P2
2022/09/16 00:01:16;;;;;;;16.40;2.97;;;;;;;11.28;100.00;100242.72;5026105;28;20035;-71
2022/09/16 00:03:42;;;;;;;17.83;2.95;;;;;;;11.20;100.00;100250.91;5025831;28;20036;-71
2022/09/16 00:06:26;;;;;;;14.15;2.80;;;;;;;11.19;100.00;100254.66;5026465;28;20026;-71
2022/09/16 00:08:54;;;;;;;10.38;2.55;;;;;;;11.11;100.00;100250.97;5025536;28;20021;-72
2022/09/16 00:11:20;;;;;;;21.45;4.10;;;;;;;11.04;100.00;100239.16;5026956;28;20025;-72
2022/09/16 00:13:46;;;;;;;17.35;2.75;;;;;;;11.12;100.00;100243.69;5025729;28;20036;-73
2022/09/16 00:16:17;;;;;;;17.02;2.72;;;;;;;11.22;99.78;100244.31;5025539;28;20390;-70
2022/09/16 00:18:43;;;;;;;13.43;2.20;;;;;;;11.22;99.78;100240.75;5026847;28;20052;-71
2022/09/16 00:21:09;;;;;;;19.65;3.25;;;;;;;11.17;100.00;100254.00;5025994;28;20041;-72
2022/09/16 00:23:35;;;;;;;13.35;2.50;;;;;;;11.16;100.00;100249.59;5025649;28;20366;-71
2022/09/16 00:26:01;;;;;;;21.80;3.42;;;;;;;11.02;100.00;100243.91;5026594;28;20083;-71
2022/09/16 00:28:27;;;;;;;21.75;3.78;;;;;;;10.87;100.00;100242.94;5025612;28;20062;-71
2022/09/16 00:30:52;;;;;;;16.27;2.90;;;;;;;11.05;100.00;100238.13;5024786;28;20025;-72
2022/09/16 00:33:19;;;;;;;16.83;3.45;;;;;;;10.98;100.00;100236.31;5026264;28;20156;-71
2022/09/16 00:35:45;;;;;;;23.30;2.75;;;;;;;11.07;100.00;100244.19;5025583;28;20029;-71
2022/09/16 00:38:10;;;;;;;14.25;2.95;;;;;;;11.09;100.00;100244.88;5025963;28;20108;-69
2022/09/16 00:40:46;;;;;;;11.65;2.75;;;;;;;11.17;100.00;100241.28;5025883;28;20131;-72
2022/09/16 00:43:16;;;;;;;14.90;2.50;;;;;;;11.33;100.00;100257.44;5025756;28;20032;-72
2022/09/16 00:45:44;;;;;;;16.55;2.72;;;;;;;11.29;99.96;100260.72;5025250;28;20048;-73
2022/09/16 00:48:14;;;;;;;16.67;2.92;;;;;;;11.22;100.00;100267.88;5027791;28;20104;-73
2022/09/16 00:50:50;;;;;;;13.55;2.40;;;;;;;11.26;100.00;100266.47;5029795;28;20021;-74
2022/09/16 00:53:29;;;;;;;21.33;3.60;;;;;;;11.24;100.00;100269.34;5022018;28;20025;-71
2022/09/16 00:55:58;;;;;;;16.92;3.58;;;;;;;11.24;100.00;100253.09;5026967;28;20079;-72
2022/09/16 00:58:38;;;;;;;18.70;3.40;;;;;;;10.89;100.00;100254.47;5027725;28;20067;-71
2022/09/16 01:01:04;;;;;;;10.45;3.17;;;;;;;11.05;100.00;100254.38;5028086;28;20035;-72
2022/09/16 01:03:34;;;;;;;16.88;2.97;;;;;;;11.02;100.00;100249.34;5027451;28;20017;-71
2022/09/16 01:05:59;;;;;;;24.52;4.20;;;;;;;11.07;100.00;100252.31;5027606;28;20029;-70
2022/09/16 01:08:25;;;;;;;24.92;3.83;;;;;;;10.96;100.00;100260.03;5028335;28;20026;-71
2022/09/16 01:10:51;;;;;;;18.73;2.75;;;;;;;11.12;100.00;100260.78;5028403;28;20030;-71
2022/09/16 01:13:16;;;;;;;18.02;3.53;;;;;;;11.13;100.00;100262.47;5029488;28;20025;-72
2022/09/16 01:16:05;;;;;;;15.27;3.08;;;;;;;11.36;100.00;100267.94;5028534;28;20029;-72
2022/09/16 01:18:47;;;;;;;17.65;2.80;;;;;;;11.29;100.00;100258.00;5023702;28;20084;-72
2022/09/16 01:21:37;;;;;;;12.30;2.95;;;;;;;11.29;100.00;100258.00;5022897;28;20025;-72
2022/09/16 01:24:28;;;;;;;18.27;3.05;;;;;;;11.13;100.00;100256.19;5027789;28;20048;-72
2022/09/16 01:27:12;;;;;;;14.20;2.65;;;;;;;11.26;100.00;100264.59;5027543;28;20108;-72
2022/09/16 01:30:22;;;;;;;16.17;2.83;;;;;;;11.13;100.00;100257.03;5028539;28;20025;-72
2022/09/16 01:32:57;;;;;;;21.10;2.88;;;;;;;11.13;100.00;100261.63;4990369;28;20033;-71
2022/09/16 01:35:44;;;;;;;16.42;2.67;;;;;;;10.88;100.00;100253.59;5022341;28;20033;-72
2022/09/16 01:38:40;;;;;;;10.57;2.13;;;;;;;10.92;100.00;100259.53;5027018;28;20035;-70
2022/09/16 01:41:13;;;;;;;15.48;2.47;;;;;;;10.85;100.00;100253.13;5025599;28;20071;-70
2022/09/16 01:43:57;;;;;;;13.13;2.90;;;;;;;10.93;100.00;100254.94;5028820;28;20040;-70
2022/09/16 01:46:32;;;;;;;20.15;2.90;;;;;;;10.94;100.00;100246.63;5022526;28;20378;-71
2022/09/16 01:49:06;;;;;;;11.70;2.80;;;;;;;10.90;100.00;100256.16;5029603;28;20022;-71
2022/09/16 01:51:47;;;;;;;16.65;3.30;;;;;;;10.83;100.00;100249.75;5025779;28;20068;-71
2022/09/16 01:54:25;;;;;;;16.70;3.40;;;;;;;10.86;100.00;100260.22;5026326;28;20025;-70
2022/09/16 01:57:01;;;;;;;15.43;3.72;;;;;;;10.83;100.00;100244.34;5027236;28;20462;-70
2022/09/16 01:59:35;;;;;;;20.60;3.95;;;;;;;10.72;100.00;100247.41;5023074;28;20025;-71
2022/09/16 02:02:09;;;;;;;20.48;4.53;;;;;;;10.70;100.00;100235.91;5029871;28;20025;-71
2022/09/16 02:04:41;;;;;;;21.95;4.68;;;;;;;10.64;100.00;100233.91;5026030;28;20021;-71
2022/09/16 02:07:09;;;;;;;;;;;;;;;10.65;100.00;100238.31;5023740;28;20075;-71
2022/09/16 02:09:40;;;;;;;14.60;4.57;;;;;;;10.69;100.00;100235.03;5041268;28;19916;-70
2022/09/16 02:12:09;;;;;;;17.00;3.75;;;;;;;10.80;100.00;100223.00;5033923;28;20021;-71
2022/09/16 02:14:41;;;;;;;17.98;4.45;;;;;;;10.72;100.00;100220.34;5025716;28;20033;-70
2022/09/16 02:17:10;;;;;;;15.98;4.15;;;;;;;10.80;100.00;100229.25;5026365;28;20017;-69
2022/09/16 02:19:43;;;;;;;21.95;5.80;;;;;;;10.69;100.00;100221.50;5026878;28;20033;-69
2022/09/16 02:22:14;;;;;;;16.63;5.05;;;;;;;10.73;100.00;100227.44;5026874;28;20025;-69
2022/09/16 02:24:42;;;;;;;14.00;5.15;;;;;;;10.57;100.00;100223.78;5025924;28;20037;-71
2022/09/16 02:27:12;;;;;;;15.82;4.75;;;;;;;10.62;100.00;100227.81;5026198;28;20089;-69
2022/09/16 02:29:45;;;;;;;21.08;5.40;;;;;;;10.52;100.00;100220.75;5026294;28;20351;-69
2022/09/16 02:32:12;;;;;;;17.67;5.10;;;;;;;10.52;100.00;100218.03;5026740;28;20025;-70
2022/09/16 02:34:43;;;;;;;20.88;4.68;;;;;;;10.57;100.00;100212.94;5026230;28;20021;-69
2022/09/16 02:37:23;;;;;;;22.07;4.23;;;;;;;10.72;100.00;100225.75;5026107;28;20025;-70
2022/09/16 02:39:56;;;;;;;11.73;4.75;;;;;;;10.72;100.00;100225.75;5025924;28;20025;-70
2022/09/16 02:42:22;;;;;;;24.02;5.57;;;;;;;10.74;100.00;100223.69;5025908;28;20021;-70
2022/09/16 02:44:48;;;;;;;22.92;5.07;;;;;;;10.80;100.00;100233.84;5027064;28;20029;-71
2022/09/16 02:47:13;;;;;;;18.40;3.72;;;;;;;10.71;100.00;100232.19;5025574;28;20028;-70
2022/09/16 02:49:55;;;;;;;23.05;4.82;;;;;;;10.60;100.00;100223.41;5026426;28;20034;-69
2022/09/16 02:52:45;;;;;;;17.17;4.60;;;;;;;10.49;100.00;100221.06;5034393;23;20037;-77
2022/09/16 02:55:21;;;;;;;23.00;5.97;;;;;;;10.54;100.00;100224.09;5032193;28;20042;-78
2022/09/16 02:57:48;;;;;;;20.80;5.70;;;;;;;10.54;100.00;100213.28;5019168;28;20026;-78
2022/09/16 03:00:14;;;;;;;17.33;3.80;;;;;;;10.61;100.00;100221.56;5004024;28;20041;-78
2022/09/16 03:02:43;;;;;;;17.70;5.10;;;;;;;10.67;100.00;100233.53;5023146;28;20021;-75
2022/09/16 03:05:12;;;;;;;18.55;4.13;;;;;;;10.72;100.00;100223.03;5028842;28;20022;-77
2022/09/16 03:07:40;;;;;;;11.35;3.40;;;;;;;10.72;100.00;100204.94;5028476;28;20068;-78
2022/09/16 03:10:09;;;;;;;14.55;3.67;;;;;;;10.83;100.00;100212.69;5033789;28;20057;-76
2022/09/16 03:12:56;;;;;;;13.75;4.30;;;;;;;10.58;100.00;100208.38;5037067;28;20026;-77
2022/09/16 03:15:46;;;;;;;19.85;4.25;;;;;;;10.57;100.00;100207.53;5035913;28;20053;-74
2022/09/16 03:18:21;;;;;;;11.50;3.22;;;;;;;10.46;100.00;100210.59;5029481;28;20033;-77
2022/09/16 03:21:10;;;;;;;14.35;3.75;;;;;;;10.50;100.00;100203.84;5029333;28;20040;-78
2022/09/16 03:23:58;;;;;;;15.45;3.85;;;;;;;10.52;100.00;100204.50;5037968;28;20085;-78
2022/09/16 03:26:44;;;;;;;25.73;4.88;;;;;;;10.49;100.00;100210.25;5030393;28;20025;-75
2022/09/16 03:30:10;;;;;;;11.57;3.72;;;;;;;10.61;100.00;100199.91;5024879;28;20025;-79
2022/09/16 03:32:44;;;;;;;13.45;3.90;;;;;;;10.55;100.00;100203.28;5018075;28;20056;-77
2022/09/16 03:35:25;;;;;;;17.70;4.47;;;;;;;10.65;100.00;100203.09;5018042;28;20024;-76
2022/09/16 03:37:54;;;;;;;18.05;4.60;;;;;;;10.37;100.00;100206.25;5025623;28;20045;-79
2022/09/16 03:40:21;;;;;;;15.50;3.88;;;;;;;10.43;100.00;100194.72;5038120;28;20021;-79
2022/09/16 03:42:46;;;;;;;14.98;4.30;;;;;;;10.43;100.00;100193.84;5039258;28;20024;-77
2022/09/16 03:45:19;;;;;;;15.88;4.10;;;;;;;10.46;100.00;100191.66;5036233;28;20024;-76
2022/09/16 03:47:47;;;;;;;17.98;4.65;;;;;;;10.47;100.00;100196.06;5030728;28;20055;-77
2022/09/16 03:50:20;;;;;;;13.82;4.30;;;;;;;10.24;100.00;100189.72;5033098;28;20021;-77
2022/09/16 03:52:46;;;;;;;16.45;4.22;;;;;;;10.29;100.00;100181.91;5030765;28;20082;-77
2022/09/16 03:55:12;;;;;;;18.45;4.38;;;;;;;10.39;100.00;100193.38;5028458;28;20044;-77
2022/09/16 03:57:38;;;;;;;13.73;3.95;;;;;;;10.26;100.00;100182.25;5029180;28;20029;-77
2022/09/16 04:00:08;;;;;;;21.65;4.57;;;;;;;10.30;100.00;100197.09;5033155;28;20025;-75
2022/09/16 04:02:34;;;;;;;11.43;4.10;;;;;;;10.32;100.00;100197.81;5038628;28;20491;-77
2022/09/16 04:05:00;;;;;;;22.80;5.03;;;;;;;10.44;100.00;100187.47;5034837;28;20031;-78
2022/09/16 04:07:25;;;;;;;11.90;4.07;;;;;;;10.51;100.00;100191.16;5026834;28;20026;-75
2022/09/16 04:09:50;;;;;;;20.05;4.03;;;;;;;10.46;100.00;100209.75;5036398;28;20017;-77
2022/09/16 04:12:16;;;;;;;18.75;3.67;;;;;;;10.48;100.00;100203.16;5036516;28;20522;-77
2022/09/16 04:14:42;;;;;;;19.40;4.15;;;;;;;10.52;100.00;100201.78;5031613;28;20061;-76
2022/09/16 04:17:07;;;;;;;20.02;4.13;;;;;;;10.49;100.00;100199.41;5034703;28;20495;-75
2022/09/16 04:19:33;;;;;;;17.85;4.07;;;;;;;10.45;100.00;100192.69;5027114;28;20021;-76
2022/09/16 04:21:58;;;;;;;16.02;4.70;;;;;;;10.60;100.00;100200.91;5030540;28;20040;-78
2022/09/16 04:24:24;;;;;;;16.52;4.55;;;;;;;10.44;100.00;100188.28;5027700;28;20124;-77
2022/09/16 04:26:49;;;;;;;24.00;4.40;;;;;;;10.38;100.00;100180.88;5035084;28;20021;-75
2022/09/16 04:29:16;;;;;;;13.80;3.63;;;;;;;10.42;100.00;100193.03;5028431;28;20017;-78
2022/09/16 04:31:41;;;;;;;15.18;4.15;;;;;;;10.42;100.00;100182.19;5032985;28;20056;-75
2022/09/16 04:34:33;;;;;;;15.88;3.53;;;;;;;10.45;100.00;100171.03;5032700;28;20068;-78
2022/09/16 04:36:59;;;;;;;16.58;4.25;;;;;;;10.38;100.00;100170.03;5032673;28;20029;-78
2022/09/16 04:39:24;;;;;;;9.35;3.63;;;;;;;10.37;100.00;100184.59;5026580;28;20074;-73
2022/09/16 04:41:50;;;;;;;12.50;3.90;;;;;;;10.28;100.00;100174.81;5031910;28;20075;-78
2022/09/16 04:44:21;;;;;;;22.42;4.35;;;;;;;10.32;100.00;100176.16;5034486;28;20086;-75
2022/09/16 04:46:46;;;;;;;13.45;3.67;;;;;;;10.30;100.00;100164.63;5035829;28;20074;-76
2022/09/16 04:49:12;;;;;;;13.80;3.38;;;;;;;10.28;100.00;100158.56;5026128;28;20025;-76
2022/09/16 04:51:37;;;;;;;10.30;3.65;;;;;;;10.38;100.00;100170.03;5027622;28;20018;-77
2022/09/16 04:54:03;;;;;;;13.35;3.63;;;;;;;10.39;100.00;100171.72;5032117;28;20036;-76
2022/09/16 04:56:31;;;;;;;13.50;4.03;;;;;;;10.32;100.00;100166.19;5041059;28;20028;-74
2022/09/16 04:59:01;;;;;;;14.02;3.78;;;;;;;10.34;100.00;100171.41;5037909;28;20028;-74
2022/09/16 05:01:29;;;;;;;13.73;3.58;;;;;;;10.48;100.00;100175.25;5031236;28;20395;-76
2022/09/16 05:03:58;;;;;;;13.02;2.83;;;;;;;10.51;100.00;100175.75;5026868;28;20029;-75
2022/09/16 05:06:40;;;;;;;18.98;4.32;;;;;;;10.64;100.00;100177.06;5028376;28;20025;-76
2022/09/16 05:09:22;;;;;;;14.95;3.13;;;;;;;10.43;100.00;100194.72;5028091;28;20040;-78
2022/09/16 05:11:49;;;;;;;13.00;3.15;;;;;;;10.51;100.00;100192.00;5022051;28;20092;-76
2022/09/16 05:14:26;;;;;;;16.63;3.72;;;;;;;10.47;100.00;100179.81;5034213;28;20056;-77
2022/09/16 05:16:55;;;;;;;13.68;3.22;;;;;;;10.39;100.00;100176.31;5036135;28;20024;-75
2022/09/16 05:19:29;;;;;;;;;;;;;;;10.41;100.00;100169.69;5031749;28;20024;-74
2022/09/16 05:21:58;;;;;;;17.05;2.92;;;;;;;10.47;100.00;100177.09;5029261;28;19935;-78
2022/09/16 05:24:26;;;;;;;12.13;3.50;;;;;;;10.35;100.00;100164.97;5033474;28;20025;-78
2022/09/16 05:26:57;;;;;;;18.10;3.42;;;;;;;10.40;100.00;100168.00;5025205;28;20392;-76
2022/09/16 05:29:43;;;;;;;12.73;3.30;;;;;;;10.26;100.00;100171.44;5039059;28;20479;-74
2022/09/16 05:32:26;;;;;;;15.45;3.60;;;;;;;10.28;100.00;100174.81;5033025;28;20026;-77
2022/09/16 05:35:08;;;;;;;25.73;4.30;;;;;;;10.22;100.00;100164.63;5032763;28;20124;-77
2022/09/16 05:37:48;;;;;;;16.25;2.90;;;;;;;10.36;100.00;100161.25;5028684;28;20029;-76
2022/09/16 05:40:16;;;;;;;17.45;3.53;;;;;;;10.29;100.00;100165.66;5035617;28;20029;-77
2022/09/16 05:42:51;;;;;;;9.63;3.25;;;;;;;10.34;100.00;100174.09;5039886;28;20032;-75
2022/09/16 05:45:31;;;;;;;15.73;3.13;;;;;;;10.62;100.00;100170.97;5036498;28;20036;-76
2022/09/16 05:48:02;;;;;;;18.98;3.47;;;;;;;10.82;100.00;100185.75;5033352;28;20017;-78
2022/09/16 05:50:34;;;;;;;18.02;3.58;;;;;;;10.51;100.00;100164.94;5035147;28;20021;-76
2022/09/16 05:53:09;;;;;;;21.75;4.55;;;;;;;10.48;100.00;100178.78;5033358;28;20041;-74
2022/09/16 05:55:44;;;;;;;19.65;2.97;;;;;;;10.51;100.00;100173.03;5035114;28;20017;-76
2022/09/16 05:58:19;;;;;;;20.70;3.85;;;;;;;10.41;100.00;100183.22;5033694;28;20018;-77
2022/09/16 06:01:11;;;;;;;21.77;3.60;;;;;;;10.41;100.00;100175.09;5049112;28;20153;-77
2022/09/16 06:03:42;;;;;;;23.75;4.15;;;;;;;10.42;100.00;100175.94;5027232;28;20037;-77
2022/09/16 06:06:24;;;;;;;28.55;4.88;;;;;;;10.33;100.00;100167.00;5036285;28;20036;-76
2022/09/16 06:08:55;;;;;;;18.77;3.35;;;;;;;10.32;100.00;100159.91;5032051;28;20017;-75
2022/09/16 06:11:21;;;;;;;19.25;3.20;;;;;;;10.38;100.00;100159.22;5032533;28;20022;-76
2022/09/16 06:13:51;;;;;;;13.98;3.55;;;;;;;10.39;100.00;100166.31;5031907;28;20026;-77
2022/09/16 06:16:17;;;;;;;15.40;3.33;;;;;;;10.64;100.00;100161.66;5029890;28;20155;-76
2022/09/16 06:18:43;;;;;;;23.27;4.00;;;;;;;10.87;100.00;100159.00;5036910;28;20017;-76
2022/09/16 06:21:12;;;;;;;21.33;4.45;;;;;;;10.78;100.00;100160.06;5038146;28;20021;-76
2022/09/16 06:23:39;;;;;;;19.70;3.40;;;;;;;10.71;100.00;100169.91;5029503;28;20029;-76
2022/09/16 06:26:25;;;;;;;18.00;3.42;;;;;;;10.79;100.00;100162.59;5028275;28;20028;-74
2022/09/16 06:28:56;;;;;;;26.08;3.30;;;;;;;10.77;100.00;100166.50;5027536;28;20040;-74
2022/09/16 06:31:27;;;;;;;16.15;3.13;;;;;;;10.71;100.00;100159.94;5030565;28;20013;-70
2022/09/16 06:33:57;;;;;;;13.60;3.00;;;;;;;10.80;100.00;100145.31;5043611;28;20035;-73
2022/09/16 06:36:31;;;;;;;17.88;3.88;;;;;;;10.78;100.00;100149.25;5033551;28;20017;-71
2022/09/16 06:38:58;;;;;;;17.48;3.35;;;;;;;10.73;100.00;100136.22;5030860;28;20025;-72
2022/09/16 06:41:28;;;;;;;18.23;3.10;;;;;;;10.98;99.89;100145.06;5027157;28;20025;-69
2022/09/16 06:43:55;;;;;;;15.98;3.50;;;;;;;11.12;98.83;100149.69;5028041;28;20171;-70
2022/09/16 06:46:49;;;;;;;;;;;;;;;;;;;;;
2022/09/16 06:49:20;;;;;;;12.43;2.45;;;;;;;11.03;98.75;100126.41;5024574;28;20025;-69
2022/09/16 06:51:50;;;;;;;11.68;2.58;;;;;;;11.07;98.21;100141.25;5025277;28;20025;-70
2022/09/16 06:54:46;;;;;;;11.55;2.70;;;;;;;10.92;98.73;100145.75;5024359;28;20035;-70
2022/09/16 06:57:12;;;;;;;22.67;4.10;;;;;;;10.88;97.67;100139.00;5029588;28;20018;-69
2022/09/16 06:59:39;;;;;;;24.88;3.67;;;;;;;11.04;98.14;100128.09;5033656;28;20033;-72
2022/09/16 07:02:06;;;;;;;18.42;2.17;;;;;;;11.06;97.29;100136.88;5029687;28;20025;-72
2022/09/16 07:04:34;;;;;;;17.23;3.33;;;;;;;11.16;96.81;100133.09;5026051;28;20029;-68
2022/09/16 07:07:00;;;;;;;20.70;2.35;;;;;;;11.33;96.63;100140.06;5048288;28;20033;-73
2022/09/16 07:09:28;;;;;;;15.18;2.70;;;;;;;11.26;95.37;100139.94;5028404;28;20045;-71
2022/09/16 07:11:58;;;;;;;13.73;2.67;;;;;;;11.35;95.14;100157.00;5034385;28;20036;-69
2022/09/16 07:14:25;;;;;;;16.50;2.50;;;;;;;11.34;95.26;100123.63;5030224;28;20036;-73
2022/09/16 07:16:52;;;;;;;21.38;3.05;;;;;;;11.46;94.06;100145.72;5028037;28;20085;-71
2022/09/16 07:19:19;;;;;;;14.40;2.78;;;;;;;11.49;93.95;100152.66;5032472;28;20052;-70
2022/09/16 07:21:45;;;;;;;8.07;1.98;;;;;;;11.72;92.83;100130.94;5033518;28;20060;-72
2022/09/16 07:24:13;;;;;;;15.07;2.15;;;;;;;11.69;93.40;100133.00;5034844;28;20033;-71
2022/09/16 07:26:43;;;;;;;15.45;3.03;;;;;;;11.69;92.14;100121.31;5033030;28;20451;-69
2022/09/16 07:29:14;;;;;;;17.13;2.25;;;;;;;11.90;92.32;100128.75;5026115;28;20065;-72
2022/09/16 07:31:43;;;;;;;20.38;2.60;;;;;;;11.98;91.46;100125.94;5038356;28;20029;-72
2022/09/16 07:34:13;;;;;;;20.50;2.83;;;;;;;12.17;90.43;100143.56;5030041;28;20025;-72
2022/09/16 07:36:46;;;;;;;15.93;2.45;;;;;;;12.12;90.13;100138.69;5045887;28;20040;-70
2022/09/16 07:39:15;;;;;;;19.42;2.17;;;;;;;12.03;89.26;100147.94;5026565;28;20126;-70
2022/09/16 07:41:47;;;;;;;17.45;2.85;;;;;;;12.30;89.03;100135.59;5031819;28;20116;-70
2022/09/16 07:44:15;;;;;;;12.07;2.50;;;;;;;12.39;87.78;100142.63;5033522;28;20025;-71
2022/09/16 07:46:50;;;;;;;10.00;2.22;;;;;;;12.44;88.20;100134.75;5025387;28;20022;-71
2022/09/16 07:49:18;;;;;;;24.20;2.63;;;;;;;12.45;88.20;100132.88;5042478;28;20021;-72
2022/09/16 07:51:44;;;;;;;10.85;2.63;;;;;;;12.62;86.88;100145.22;5030741;28;20124;-72
2022/09/16 07:54:13;;;;;;;20.13;2.42;;;;;;;12.48;88.12;100132.50;5025744;28;20396;-70
2022/09/16 07:56:40;;;;;;;19.65;2.85;;;;;;;12.56;87.63;100129.69;5023795;28;20017;-73
2022/09/16 07:59:10;;;;;;;22.70;2.90;;;;;;;12.71;86.07;100143.22;5026406;28;20021;-75
2022/09/16 08:01:36;;;;;;;18.55;2.58;;;;;;;12.63;85.67;100146.06;5028778;28;20037;-72
2022/09/16 08:04:06;;;;;;;23.13;2.67;;;;;;;12.90;85.17;100142.63;5031290;28;20121;-73
2022/09/16 08:06:38;;;;;;;12.98;3.10;;;;;;;13.15;81.84;100167.59;5035633;28;20025;-72
2022/09/16 08:09:04;;;;;;;12.52;2.20;;;;;;;13.21;84.09;100150.53;5039637;28;20222;-73
2022/09/16 08:11:30;;;;;;;15.38;2.83;;;;;;;13.11;83.24;100144.56;5034263;28;20028;-69
2022/09/16 08:13:58;;;;;;;28.80;3.25;;;;;;;13.14;84.92;100138.72;5033525;28;20009;-71
2022/09/16 08:16:24;;;;;;;13.60;2.50;;;;;;;12.72;84.55;100140.34;5026895;28;20013;-72
2022/09/16 08:18:53;;;;;;;24.65;2.65;;;;;;;12.68;84.69;100133.59;5036992;28;20027;-71
2022/09/16 08:21:22;;;;;;;24.13;3.13;;;;;;;12.85;84.48;100133.41;5038251;28;20151;-72
2022/09/16 08:23:48;;;;;;;15.93;2.17;;;;;;;13.03;84.62;100131.06;5028214;28;20067;-72
2022/09/16 08:26:16;;;;;;;11.65;1.95;;;;;;;13.31;82.98;100123.06;5033592;28;20051;-69
2022/09/16 08:28:44;;;;;;;13.52;2.30;;;;;;;13.15;81.26;100143.13;5027674;28;20014;-72
2022/09/16 08:31:12;;;;;;;12.55;2.60;;;;;;;13.23;80.91;100148.47;5028807;28;20029;-72
2022/09/16 08:33:40;;;;;;;11.85;2.05;;;;;;;13.38;80.58;100139.44;5027444;28;20109;-70
2022/09/16 08:36:09;;;;;;;15.60;2.47;;;;;;;13.44;79.59;100133.22;5031139;28;20044;-73
2022/09/16 08:38:37;;;;;;;15.32;2.72;;;;;;;13.72;79.66;100153.13;5032657;28;20570;-72
2022/09/16 08:41:13;;;;;;;16.25;2.78;;;;;;;13.27;80.02;100154.38;5027716;28;20021;-69
2022/09/16 08:43:47;;;;;;;17.33;2.47;;;;;;;13.38;81.05;100144.88;5034921;28;20074;-69
2022/09/16 08:46:33;;;;;;;22.17;2.28;;;;;;;13.29;80.76;100164.00;5031332;28;20033;-73
2022/09/16 08:49:21;;;;;;;14.38;2.83;;;;;;;13.27;81.63;100149.75;5027118;28;20352;-70
2022/09/16 08:51:48;;;;;;;18.27;2.28;;;;;;;13.26;80.55;100158.97;5033293;28;20041;-72
2022/09/16 08:54:29;;;;;;;14.13;2.80;;;;;;;13.12;81.92;100157.13;5029586;23;20038;-70
2022/09/16 08:56:59;;;;;;;19.60;2.75;;;;;;;13.05;83.28;100150.75;5023207;28;20018;-71
2022/09/16 08:59:31;;;;;;;12.98;2.33;;;;;;;13.06;82.14;100157.88;5023697;28;20115;-70
2022/09/16 09:02:22;;;;;;;15.75;2.47;;;;;;;13.35;81.95;100156.13;5013947;28;20050;-70
2022/09/16 09:04:48;;;;;;;22.70;3.00;;;;;;;13.17;79.92;100160.09;5008555;28;20036;-70
2022/09/16 09:07:25;;;;;;;24.40;2.78;;;;;;;13.28;82.08;100146.00;5005886;28;20026;-71
2022/09/16 09:10:12;;;;;;;24.23;3.50;;;;;;;13.45;81.95;100156.66;5011485;28;20033;-70
2022/09/16 09:12:42;;;;;;;18.63;3.20;;;;;;;13.49;81.27;100147.03;4984826;28;20026;-70
2022/09/16 09:15:17;;;;;;;18.98;3.10;;;;;;;13.66;80.26;100148.47;5007912;28;20034;-70
2022/09/16 09:17:59;;;;;;;17.40;2.58;;;;;;;13.69;80.30;100142.66;5003945;28;20014;-70
2022/09/16 09:20:31;;;;;;;23.48;2.30;;;;;;;13.89;79.42;100141.94;5007538;28;20022;-70
2022/09/16 09:23:31;;;;;;;12.98;2.72;;;;;;;14.27;78.73;100135.06;5010750;28;20056;-71
2022/09/16 09:26:19;;;;;;;27.83;4.07;;;;;;;13.84;77.59;100132.50;5006615;28;20032;-70
2022/09/16 09:29:05;;;;;;;24.23;3.63;;;;;;;13.96;77.03;100137.41;5005849;28;20018;-71
2022/09/16 09:31:45;;;;;;;18.25;2.95;;;;;;;14.11;76.88;100132.69;5005119;28;20113;-72
2022/09/16 09:34:42;;;;;;;22.15;3.10;;;;;;;13.71;79.42;100129.69;5006941;28;20072;-71
2022/09/16 09:37:32;;;;;;;15.02;3.13;;;;;;;13.15;81.12;100156.72;4985800;28;20041;-71
2022/09/16 09:40:12;;;;;;;18.85;3.08;;;;;;;12.73;85.99;100122.19;5007079;28;20017;-70
2022/09/16 09:42:45;;;;;;;15.52;2.50;;;;;;;12.65;86.58;100128.56;5007378;28;20017;-71
2022/09/16 09:45:20;;;;;;;23.27;2.88;;;;;;;12.71;86.24;100107.91;5006274;28;20094;-71
2022/09/16 09:47:51;;;;;;;19.52;2.85;;;;;;;12.99;85.16;100118.91;5008400;28;20018;-71
2022/09/16 09:50:22;;;;;;;12.82;2.58;;;;;;;13.22;83.74;100107.88;5000591;28;20094;-71
2022/09/16 09:52:57;;;;;;;9.43;2.65;;;;;;;13.21;82.20;100115.19;5006729;28;20032;-71
2022/09/16 09:55:26;;;;;;;21.52;2.72;;;;;;;13.65;82.16;100108.69;5006140;28;20049;-70
2022/09/16 09:58:27;;;;;;;14.95;2.33;;;;;;;13.88;80.16;100108.44;5007368;28;20030;-72
2022/09/16 10:00:56;;;;;;;11.77;1.73;;;;;;;14.04;79.04;100096.41;5000924;28;20037;-71
2022/09/16 10:03:22;;;;;;;15.93;2.65;;;;;;;14.12;79.44;100118.88;5005022;28;20022;-71
2022/09/16 10:05:47;;;;;;;15.57;3.22;;;;;;;14.18;76.71;100098.19;5003750;28;20017;-72
2022/09/16 10:08:20;;;;;;;18.20;2.58;;;;;;;14.18;73.94;100103.63;5008138;28;20105;-71
2022/09/16 10:10:52;;;;;;;16.65;3.08;;;;;;;14.18;74.13;100103.63;5007158;28;20018;-71
2022/09/16 10:13:19;;;;;;;16.65;2.60;;;;;;;14.65;71.92;100100.09;4999720;28;20017;-71
2022/09/16 10:15:46;;;;;;;16.60;2.40;;;;;;;14.36;73.32;100112.09;5007452;28;20018;-71
2022/09/16 10:18:20;;;;;;;17.75;2.63;;;;;;;14.81;72.72;100098.91;5006230;28;20053;-71
2022/09/16 10:20:56;;;;;;;13.68;2.45;;;;;;;14.57;73.65;100102.19;5007661;28;20481;-73
2022/09/16 10:23:24;;;;;;;17.17;2.72;;;;;;;14.42;75.69;100104.19;5018228;23;20030;-70
2022/09/16 10:26:03;;;;;;;18.50;3.53;;;;;;;14.76;74.17;100098.69;5039551;28;20045;-71
2022/09/16 10:28:29;;;;;;;10.85;2.08;;;;;;;14.82;74.13;100084.25;5025394;28;20025;-70
2022/09/16 10:30:57;;;;;;;21.20;3.17;;;;;;;14.92;74.33;100079.22;5024188;28;20496;-70
2022/09/16 10:33:33;;;;;;;13.32;2.42;;;;;;;15.04;73.32;100086.81;4999715;28;20018;-70
2022/09/16 10:36:07;;;;;;;13.55;2.80;;;;;;;15.63;72.15;100069.69;5006747;28;20128;-70
2022/09/16 10:38:39;;;;;;;20.73;3.35;;;;;;;15.14;71.41;100084.53;5009602;28;20029;-72
2022/09/16 10:41:15;;;;;;;22.90;2.88;;;;;;;15.42;68.32;100085.19;5009434;28;20025;-70
2022/09/16 10:43:48;;;;;;;18.83;2.50;;;;;;;15.04;68.70;100086.81;5011369;28;20026;-70
2022/09/16 10:46:15;;;;;;;19.45;2.60;;;;;;;15.41;69.09;100056.22;5009420;28;20018;-70
2022/09/16 10:48:42;;;;;;;18.27;2.92;;;;;;;14.91;67.77;100072.09;5007127;28;20025;-69
2022/09/16 10:51:20;;;;;;;24.88;3.42;;;;;;;15.39;68.59;100074.69;5001065;28;20120;-69
2022/09/16 10:53:52;;;;;;;9.20;1.90;;;;;;;16.16;66.84;100056.75;5006661;28;20112;-70
2022/09/16 10:56:28;;;;;;;16.30;2.78;;;;;;;15.83;66.70;100065.03;5004902;28;20409;-70
2022/09/16 10:59:02;;;;;;;15.77;2.75;;;;;;;15.84;65.80;100044.03;5005031;28;20014;-69
2022/09/16 11:01:55;;;;;;;15.30;2.75;;;;;;;16.16;63.82;100050.47;5016916;28;20036;-70
2022/09/16 11:04:42;;;;;;;15.20;2.72;;;;;;;16.15;64.36;100056.97;5010550;28;20028;-69
2022/09/16 11:07:40;;;;;;;19.40;2.92;;;;;;;15.89;63.88;100053.25;5019132;28;20033;-69
2022/09/16 11:10:58;;;;;;;12.35;2.78;;;;;;;16.17;64.35;100033.03;5006631;28;20120;-70
2022/09/16 11:13:40;;;;;;;12.93;2.47;;;;;;;16.07;63.39;100043.56;4990622;28;20030;-69
2022/09/16 11:16:08;;;;;;;13.82;3.47;;;;;;;15.54;65.47;100058.13;5007055;28;20044;-69
2022/09/16 11:18:55;;;;;;;17.25;2.67;;;;;;;15.86;64.38;100034.59;5007361;28;20442;-69
2022/09/16 11:21:35;;;;;;;20.08;2.53;;;;;;;15.64;64.22;100049.53;5007945;28;20052;-68
2022/09/16 11:24:19;;;;;;;17.20;1.80;;;;;;;14.37;69.70;100094.72;5012781;28;20034;-69
2022/09/16 11:27:06;;;;;;;13.48;2.10;;;;;;;13.02;79.28;100113.09;5005388;28;20042;-70
2022/09/16 11:29:59;;;;;;;24.20;3.05;;;;;;;12.80;82.54;100086.94;5006885;28;20033;-70
2022/09/16 11:33:02;;;;;;;16.98;3.15;;;;;;;12.45;84.01;100084.00;5009499;28;20014;-71
2022/09/16 11:35:41;;;;;;;20.20;2.50;;;;;;;12.44;86.22;100071.47;5002497;28;20022;-71
2022/09/16 11:38:24;;;;;;;13.10;2.30;;;;;;;12.47;86.78;100060.25;5005659;28;20018;-70
2022/09/16 11:41:02;;;;;;;14.10;2.00;;;;;;;12.57;87.00;100049.91;5007192;28;20931;-71
2022/09/16 11:43:45;;;;;;;29.83;3.42;;;;;;;12.72;81.71;100064.31;5009663;28;20030;-70